sensor_id;sensor_type;location;lat;lon;timestamp;temperature;humidity
55211;DHT22;41082;52.822;6.666;2023-04-24T00:02:03;11.50;99.90
55211;DHT22;41082;52.822;6.666;2023-04-24T00:04:29;11.50;99.90
55211;DHT22;41082;52.822;6.666;2023-04-24T00:06:55;11.50;99.90
55211;DHT22;41082;52.822;6.666;2023-04-24T00:09:22;11.50;99.90
55211;DHT22;41082;52.822;6.666;2023-04-24T00:11:48;11.50;99.90
55211;DHT22;41082;52.822;6.666;2023-04-24T00:14:14;11.50;99.90
55211;DHT22;41082;52.822;6.666;2023-04-24T00:16:39;11.50;99.90
55211;DHT22;41082;52.822;6.666;2023-04-24T00:19:05;11.50;99.90
55211;DHT22;41082;52.822;6.666;2023-04-24T00:21:32;11.40;99.90
55211;DHT22;41082;52.822;6.666;2023-04-24T00:23:58;11.40;99.90
55211;DHT22;41082;52.822;6.666;2023-04-24T00:26:23;11.40;99.90
55211;DHT22;41082;52.822;6.666;2023-04-24T00:28:49;11.40;99.90
55211;DHT22;41082;52.822;6.666;2023-04-24T00:31:15;11.40;99.90
55211;DHT22;41082;52.822;6.666;2023-04-24T00:33:41;11.40;99.90
55211;DHT22;41082;52.822;6.666;2023-04-24T00:36:06;11.40;99.90
55211;DHT22;41082;52.822;6.666;2023-04-24T00:38:32;11.40;99.90
55211;DHT22;41082;52.822;6.666;2023-04-24T00:40:58;11.40;99.90
55211;DHT22;41082;52.822;6.666;2023-04-24T00:43:24;11.40;99.90
55211;DHT22;41082;52.822;6.666;2023-04-24T00:45:50;11.40;99.90
55211;DHT22;41082;52.822;6.666;2023-04-24T00:48:16;11.30;99.90
55211;DHT22;41082;52.822;6.666;2023-04-24T00:50:42;11.30;99.90
55211;DHT22;41082;52.822;6.666;2023-04-24T00:53:07;11.30;99.90
55211;DHT22;41082;52.822;6.666;2023-04-24T00:55:33;11.30;99.90
55211;DHT22;41082;52.822;6.666;2023-04-24T00:57:59;11.30;99.90
55211;DHT22;41082;52.822;6.666;2023-04-24T01:00:25;11.20;99.90
55211;DHT22;41082;52.822;6.666;2023-04-24T01:02:51;11.20;99.90
55211;DHT22;41082;52.822;6.666;2023-04-24T01:05:17;11.20;99.90
55211;DHT22;41082;52.822;6.666;2023-04-24T01:07:45;11.20;99.90
55211;DHT22;41082;52.822;6.666;2023-04-24T01:10:13;11.10;99.90
55211;DHT22;41082;52.822;6.666;2023-04-24T01:12:39;11.10;99.90
55211;DHT22;41082;52.822;6.666;2023-04-24T01:15:06;11.10;99.90
55211;DHT22;41082;52.822;6.666;2023-04-24T01:17:32;11.20;99.90
55211;DHT22;41082;52.822;6.666;2023-04-24T01:19:59;11.10;99.90
55211;DHT22;41082;52.822;6.666;2023-04-24T01:22:25;11.10;99.90
55211;DHT22;41082;52.822;6.666;2023-04-24T01:24:51;11.00;99.90
55211;DHT22;41082;52.822;6.666;2023-04-24T01:27:17;11.00;99.90
55211;DHT22;41082;52.822;6.666;2023-04-24T01:29:44;10.90;99.90
55211;DHT22;41082;52.822;6.666;2023-04-24T01:32:10;10.90;99.90
55211;DHT22;41082;52.822;6.666;2023-04-24T01:34:35;10.90;99.90
55211;DHT22;41082;52.822;6.666;2023-04-24T01:37:01;10.80;99.90
55211;DHT22;41082;52.822;6.666;2023-04-24T01:39:27;10.80;99.90
55211;DHT22;41082;52.822;6.666;2023-04-24T01:41:54;10.70;99.90
55211;DHT22;41082;52.822;6.666;2023-04-24T01:44:20;10.60;99.90
55211;DHT22;41082;52.822;6.666;2023-04-24T01:46:46;10.60;99.90
55211;DHT22;41082;52.822;6.666;2023-04-24T01:49:11;10.60;99.90
55211;DHT22;41082;52.822;6.666;2023-04-24T01:51:37;10.60;99.90
55211;DHT22;41082;52.822;6.666;2023-04-24T01:54:03;10.50;99.90
55211;DHT22;41082;52.822;6.666;2023-04-24T01:56:29;10.50;99.90
55211;DHT22;41082;52.822;6.666;2023-04-24T01:58:56;10.40;99.90
55211;DHT22;41082;52.822;6.666;2023-04-24T02:01:23;10.40;99.90
55211;DHT22;41082;52.822;6.666;2023-04-24T02:03:49;10.40;99.90
55211;DHT22;41082;52.822;6.666;2023-04-24T02:06:15;10.30;99.90
55211;DHT22;41082;52.822;6.666;2023-04-24T02:08:41;10.30;99.90
55211;DHT22;41082;52.822;6.666;2023-04-24T02:11:09;10.20;99.90
55211;DHT22;41082;52.822;6.666;2023-04-24T02:13:34;10.10;99.90
55211;DHT22;41082;52.822;6.666;2023-04-24T02:16:00;10.10;99.90
55211;DHT22;41082;52.822;6.666;2023-04-24T02:18:26;10.00;99.90
55211;DHT22;41082;52.822;6.666;2023-04-24T02:20:51;10.00;99.90
55211;DHT22;41082;52.822;6.666;2023-04-24T02:23:17;9.90;99.90
55211;DHT22;41082;52.822;6.666;2023-04-24T02:25:42;9.90;99.90
55211;DHT22;41082;52.822;6.666;2023-04-24T02:28:08;9.90;99.90
55211;DHT22;41082;52.822;6.666;2023-04-24T02:30:34;9.90;99.90
55211;DHT22;41082;52.822;6.666;2023-04-24T02:32:59;9.90;99.90
55211;DHT22;41082;52.822;6.666;2023-04-24T02:35:25;9.90;99.90
55211;DHT22;41082;52.822;6.666;2023-04-24T02:37:51;9.90;99.90
55211;DHT22;41082;52.822;6.666;2023-04-24T02:40:16;9.80;99.90
55211;DHT22;41082;52.822;6.666;2023-04-24T02:42:42;9.80;99.90
55211;DHT22;41082;52.822;6.666;2023-04-24T02:45:08;9.90;99.90
55211;DHT22;41082;52.822;6.666;2023-04-24T02:47:33;9.80;99.90
55211;DHT22;41082;52.822;6.666;2023-04-24T02:49:59;9.80;99.90
55211;DHT22;41082;52.822;6.666;2023-04-24T02:52:25;9.80;99.90
55211;DHT22;41082;52.822;6.666;2023-04-24T02:54:50;9.80;99.90
55211;DHT22;41082;52.822;6.666;2023-04-24T02:57:16;9.80;99.90
55211;DHT22;41082;52.822;6.666;2023-04-24T02:59:41;9.80;99.90
55211;DHT22;41082;52.822;6.666;2023-04-24T03:02:07;9.80;99.90
55211;DHT22;41082;52.822;6.666;2023-04-24T03:04:32;9.70;99.90
55211;DHT22;41082;52.822;6.666;2023-04-24T03:06:58;9.80;99.90
55211;DHT22;41082;52.822;6.666;2023-04-24T03:09:24;9.80;99.90
55211;DHT22;41082;52.822;6.666;2023-04-24T03:11:49;9.80;99.90
55211;DHT22;41082;52.822;6.666;2023-04-24T03:14:15;9.80;99.90
55211;DHT22;41082;52.822;6.666;2023-04-24T03:16:41;9.80;99.90
55211;DHT22;41082;52.822;6.666;2023-04-24T03:19:07;9.70;99.90
55211;DHT22;41082;52.822;6.666;2023-04-24T03:21:33;9.70;99.90
55211;DHT22;41082;52.822;6.666;2023-04-24T03:23:58;9.70;99.90
55211;DHT22;41082;52.822;6.666;2023-04-24T03:26:24;9.70;99.90
55211;DHT22;41082;52.822;6.666;2023-04-24T03:28:50;9.70;99.90
55211;DHT22;41082;52.822;6.666;2023-04-24T03:31:15;9.70;99.90
55211;DHT22;41082;52.822;6.666;2023-04-24T03:33:42;9.70;99.90
55211;DHT22;41082;52.822;6.666;2023-04-24T03:36:07;9.70;99.90
55211;DHT22;41082;52.822;6.666;2023-04-24T03:38:33;9.70;99.90
55211;DHT22;41082;52.822;6.666;2023-04-24T03:40:59;9.70;99.90
55211;DHT22;41082;52.822;6.666;2023-04-24T03:43:24;9.70;99.90
55211;DHT22;41082;52.822;6.666;2023-04-24T03:45:50;9.70;99.90
55211;DHT22;41082;52.822;6.666;2023-04-24T03:48:16;9.70;99.90
55211;DHT22;41082;52.822;6.666;2023-04-24T03:50:41;9.70;99.90
55211;DHT22;41082;52.822;6.666;2023-04-24T03:53:07;9.70;99.90
55211;DHT22;41082;52.822;6.666;2023-04-24T03:55:33;9.70;99.90
55211;DHT22;41082;52.822;6.666;2023-04-24T03:57:59;9.70;99.90
55211;DHT22;41082;52.822;6.666;2023-04-24T04:00:24;9.70;99.90
55211;DHT22;41082;52.822;6.666;2023-04-24T04:02:51;9.70;99.90
55211;DHT22;41082;52.822;6.666;2023-04-24T04:05:16;9.70;99.90
55211;DHT22;41082;52.822;6.666;2023-04-24T04:07:42;9.70;99.90
55211;DHT22;41082;52.822;6.666;2023-04-24T04:10:08;9.70;99.90
55211;DHT22;41082;52.822;6.666;2023-04-24T04:12:33;9.70;99.90
55211;DHT22;41082;52.822;6.666;2023-04-24T04:14:59;9.70;99.90
55211;DHT22;41082;52.822;6.666;2023-04-24T04:17:25;9.70;99.90
55211;DHT22;41082;52.822;6.666;2023-04-24T04:19:51;9.70;99.90
55211;DHT22;41082;52.822;6.666;2023-04-24T04:22:16;9.70;99.90
55211;DHT22;41082;52.822;6.666;2023-04-24T04:24:42;9.60;99.90
55211;DHT22;41082;52.822;6.666;2023-04-24T04:27:08;9.60;99.90
55211;DHT22;41082;52.822;6.666;2023-04-24T04:29:34;9.60;99.90
55211;DHT22;41082;52.822;6.666;2023-04-24T04:32:01;9.70;99.90
55211;DHT22;41082;52.822;6.666;2023-04-24T04:34:27;9.60;99.90
55211;DHT22;41082;52.822;6.666;2023-04-24T04:36:53;9.70;99.90
55211;DHT22;41082;52.822;6.666;2023-04-24T04:39:18;9.60;99.90
55211;DHT22;41082;52.822;6.666;2023-04-24T04:41:45;9.60;99.90
55211;DHT22;41082;52.822;6.666;2023-04-24T04:44:14;9.60;99.90
55211;DHT22;41082;52.822;6.666;2023-04-24T04:46:40;9.60;99.90
55211;DHT22;41082;52.822;6.666;2023-04-24T04:49:07;9.60;99.90
55211;DHT22;41082;52.822;6.666;2023-04-24T04:51:34;9.60;99.90
55211;DHT22;41082;52.822;6.666;2023-04-24T04:53:59;9.60;99.90
55211;DHT22;41082;52.822;6.666;2023-04-24T04:56:25;9.60;99.90
55211;DHT22;41082;52.822;6.666;2023-04-24T04:58:51;9.60;99.90
55211;DHT22;41082;52.822;6.666;2023-04-24T05:01:17;9.50;99.90
55211;DHT22;41082;52.822;6.666;2023-04-24T05:03:43;9.50;99.90
55211;DHT22;41082;52.822;6.666;2023-04-24T05:06:08;9.50;99.90
55211;DHT22;41082;52.822;6.666;2023-04-24T05:08:34;9.50;99.90
55211;DHT22;41082;52.822;6.666;2023-04-24T05:11:00;9.50;99.90
55211;DHT22;41082;52.822;6.666;2023-04-24T05:13:26;9.40;99.90
55211;DHT22;41082;52.822;6.666;2023-04-24T05:15:52;9.50;99.90
55211;DHT22;41082;52.822;6.666;2023-04-24T05:18:17;9.50;99.90
55211;DHT22;41082;52.822;6.666;2023-04-24T05:20:43;9.50;99.90
55211;DHT22;41082;52.822;6.666;2023-04-24T05:23:09;9.50;99.90
55211;DHT22;41082;52.822;6.666;2023-04-24T05:25:35;9.50;99.90
55211;DHT22;41082;52.822;6.666;2023-04-24T05:28:01;9.50;99.90
55211;DHT22;41082;52.822;6.666;2023-04-24T05:30:27;9.60;99.90
55211;DHT22;41082;52.822;6.666;2023-04-24T05:32:53;9.60;99.90
55211;DHT22;41082;52.822;6.666;2023-04-24T05:35:18;9.60;99.90
55211;DHT22;41082;52.822;6.666;2023-04-24T05:37:44;9.60;99.90
55211;DHT22;41082;52.822;6.666;2023-04-24T05:40:10;9.50;99.90
55211;DHT22;41082;52.822;6.666;2023-04-24T05:42:36;9.60;99.90
55211;DHT22;41082;52.822;6.666;2023-04-24T05:45:02;9.60;99.90
55211;DHT22;41082;52.822;6.666;2023-04-24T05:47:28;9.60;99.90
55211;DHT22;41082;52.822;6.666;2023-04-24T05:49:54;9.70;99.90
55211;DHT22;41082;52.822;6.666;2023-04-24T05:52:20;9.70;99.90
55211;DHT22;41082;52.822;6.666;2023-04-24T05:54:46;9.70;99.90
55211;DHT22;41082;52.822;6.666;2023-04-24T05:57:11;9.60;99.90
55211;DHT22;41082;52.822;6.666;2023-04-24T05:59:37;9.70;99.90
55211;DHT22;41082;52.822;6.666;2023-04-24T06:02:06;9.70;99.90
55211;DHT22;41082;52.822;6.666;2023-04-24T06:04:32;9.80;99.90
55211;DHT22;41082;52.822;6.666;2023-04-24T06:06:58;9.80;99.90
55211;DHT22;41082;52.822;6.666;2023-04-24T06:09:25;9.80;99.90
55211;DHT22;41082;52.822;6.666;2023-04-24T06:11:50;9.90;99.90
55211;DHT22;41082;52.822;6.666;2023-04-24T06:14:20;9.90;99.90
55211;DHT22;41082;52.822;6.666;2023-04-24T06:16:46;9.90;99.90
55211;DHT22;41082;52.822;6.666;2023-04-24T06:19:12;10.00;99.90
55211;DHT22;41082;52.822;6.666;2023-04-24T06:21:37;10.00;99.90
55211;DHT22;41082;52.822;6.666;2023-04-24T06:24:03;10.10;99.90
55211;DHT22;41082;52.822;6.666;2023-04-24T06:26:30;10.10;99.90
55211;DHT22;41082;52.822;6.666;2023-04-24T06:28:55;10.10;99.90
55211;DHT22;41082;52.822;6.666;2023-04-24T06:31:21;10.10;99.90
55211;DHT22;41082;52.822;6.666;2023-04-24T06:33:48;10.10;99.90
55211;DHT22;41082;52.822;6.666;2023-04-24T06:36:14;10.20;99.90
55211;DHT22;41082;52.822;6.666;2023-04-24T06:38:41;10.20;99.90
55211;DHT22;41082;52.822;6.666;2023-04-24T06:41:07;10.20;99.90
55211;DHT22;41082;52.822;6.666;2023-04-24T06:43:32;10.20;99.90
55211;DHT22;41082;52.822;6.666;2023-04-24T06:45:59;10.20;99.90
55211;DHT22;41082;52.822;6.666;2023-04-24T06:48:24;10.20;99.90
55211;DHT22;41082;52.822;6.666;2023-04-24T06:50:51;10.30;99.90
55211;DHT22;41082;52.822;6.666;2023-04-24T06:53:17;10.30;99.90
55211;DHT22;41082;52.822;6.666;2023-04-24T06:55:43;10.30;99.90
55211;DHT22;41082;52.822;6.666;2023-04-24T06:58:10;10.30;99.90
55211;DHT22;41082;52.822;6.666;2023-04-24T07:00:36;10.30;99.90
55211;DHT22;41082;52.822;6.666;2023-04-24T07:03:01;10.40;99.90
55211;DHT22;41082;52.822;6.666;2023-04-24T07:05:27;10.40;99.90
55211;DHT22;41082;52.822;6.666;2023-04-24T07:07:53;10.50;99.90
55211;DHT22;41082;52.822;6.666;2023-04-24T07:10:19;10.50;99.90
55211;DHT22;41082;52.822;6.666;2023-04-24T07:12:45;10.50;99.90
55211;DHT22;41082;52.822;6.666;2023-04-24T07:15:12;10.60;99.90
55211;DHT22;41082;52.822;6.666;2023-04-24T07:17:37;10.60;99.90
55211;DHT22;41082;52.822;6.666;2023-04-24T07:20:04;10.70;99.90
55211;DHT22;41082;52.822;6.666;2023-04-24T07:22:30;10.80;99.90
55211;DHT22;41082;52.822;6.666;2023-04-24T07:24:56;10.90;99.90
55211;DHT22;41082;52.822;6.666;2023-04-24T07:27:22;10.90;99.90
55211;DHT22;41082;52.822;6.666;2023-04-24T07:29:47;10.90;99.90
55211;DHT22;41082;52.822;6.666;2023-04-24T07:32:13;10.90;99.90
55211;DHT22;41082;52.822;6.666;2023-04-24T07:34:39;10.90;99.90
55211;DHT22;41082;52.822;6.666;2023-04-24T07:37:05;10.90;99.90
55211;DHT22;41082;52.822;6.666;2023-04-24T07:39:31;10.90;99.90
55211;DHT22;41082;52.822;6.666;2023-04-24T07:41:57;11.00;99.90
55211;DHT22;41082;52.822;6.666;2023-04-24T07:44:24;10.90;99.90
55211;DHT22;41082;52.822;6.666;2023-04-24T07:46:50;10.90;99.90
55211;DHT22;41082;52.822;6.666;2023-04-24T07:49:15;10.90;99.90
55211;DHT22;41082;52.822;6.666;2023-04-24T07:51:41;10.90;99.90
55211;DHT22;41082;52.822;6.666;2023-04-24T07:54:07;10.90;99.90
55211;DHT22;41082;52.822;6.666;2023-04-24T07:56:33;10.80;99.90
55211;DHT22;41082;52.822;6.666;2023-04-24T07:58:59;10.80;99.90
55211;DHT22;41082;52.822;6.666;2023-04-24T08:01:25;10.90;99.90
55211;DHT22;41082;52.822;6.666;2023-04-24T08:03:51;10.90;99.90
55211;DHT22;41082;52.822;6.666;2023-04-24T08:06:17;10.80;99.90
55211;DHT22;41082;52.822;6.666;2023-04-24T08:08:42;10.90;99.90
55211;DHT22;41082;52.822;6.666;2023-04-24T08:11:08;10.80;99.90
55211;DHT22;41082;52.822;6.666;2023-04-24T08:13:34;10.80;99.90
55211;DHT22;41082;52.822;6.666;2023-04-24T08:15:59;10.70;99.90
55211;DHT22;41082;52.822;6.666;2023-04-24T08:18:25;10.70;99.90
55211;DHT22;41082;52.822;6.666;2023-04-24T08:20:51;10.70;99.90
55211;DHT22;41082;52.822;6.666;2023-04-24T08:23:17;10.70;99.90
55211;DHT22;41082;52.822;6.666;2023-04-24T08:25:42;10.60;99.90
55211;DHT22;41082;52.822;6.666;2023-04-24T08:28:09;10.60;99.90
55211;DHT22;41082;52.822;6.666;2023-04-24T08:30:35;10.70;99.90
55211;DHT22;41082;52.822;6.666;2023-04-24T08:33:00;10.60;99.90
55211;DHT22;41082;52.822;6.666;2023-04-24T08:35:26;10.60;99.90
55211;DHT22;41082;52.822;6.666;2023-04-24T08:37:52;10.60;99.90
55211;DHT22;41082;52.822;6.666;2023-04-24T08:40:23;10.70;99.90
55211;DHT22;41082;52.822;6.666;2023-04-24T08:42:54;10.60;99.90
55211;DHT22;41082;52.822;6.666;2023-04-24T08:45:20;10.60;99.90
55211;DHT22;41082;52.822;6.666;2023-04-24T08:47:46;10.60;99.90
55211;DHT22;41082;52.822;6.666;2023-04-24T08:50:13;10.60;99.90
55211;DHT22;41082;52.822;6.666;2023-04-24T08:52:38;10.60;99.90
55211;DHT22;41082;52.822;6.666;2023-04-24T08:55:05;10.60;99.90
55211;DHT22;41082;52.822;6.666;2023-04-24T08:57:31;10.60;99.90
55211;DHT22;41082;52.822;6.666;2023-04-24T08:59:58;10.50;99.90
55211;DHT22;41082;52.822;6.666;2023-04-24T09:02:26;10.60;99.90
55211;DHT22;41082;52.822;6.666;2023-04-24T09:04:52;10.60;99.90
55211;DHT22;41082;52.822;6.666;2023-04-24T09:07:19;10.50;99.90
55211;DHT22;41082;52.822;6.666;2023-04-24T09:09:45;10.40;99.90
55211;DHT22;41082;52.822;6.666;2023-04-24T09:12:11;10.30;99.90
55211;DHT22;41082;52.822;6.666;2023-04-24T09:14:37;10.30;99.90
55211;DHT22;41082;52.822;6.666;2023-04-24T09:17:10;10.20;99.90
55211;DHT22;41082;52.822;6.666;2023-04-24T09:19:36;10.10;99.90
55211;DHT22;41082;52.822;6.666;2023-04-24T09:22:07;10.00;99.90
55211;DHT22;41082;52.822;6.666;2023-04-24T09:24:34;10.00;99.90
55211;DHT22;41082;52.822;6.666;2023-04-24T09:27:01;10.00;99.90
55211;DHT22;41082;52.822;6.666;2023-04-24T09:29:29;9.90;99.90
55211;DHT22;41082;52.822;6.666;2023-04-24T09:31:55;9.80;99.90
55211;DHT22;41082;52.822;6.666;2023-04-24T09:34:22;9.80;99.90
55211;DHT22;41082;52.822;6.666;2023-04-24T09:36:48;9.80;99.90
55211;DHT22;41082;52.822;6.666;2023-04-24T09:39:15;9.80;99.90
55211;DHT22;41082;52.822;6.666;2023-04-24T09:41:47;9.80;99.90
55211;DHT22;41082;52.822;6.666;2023-04-24T09:44:21;9.70;99.90
55211;DHT22;41082;52.822;6.666;2023-04-24T09:46:53;9.80;99.90
55211;DHT22;41082;52.822;6.666;2023-04-24T09:49:27;9.80;99.90
55211;DHT22;41082;52.822;6.666;2023-04-24T09:52:05;9.80;99.90
55211;DHT22;41082;52.822;6.666;2023-04-24T09:54:31;9.80;99.90
55211;DHT22;41082;52.822;6.666;2023-04-24T09:56:58;9.70;99.90
55211;DHT22;41082;52.822;6.666;2023-04-24T09:59:25;9.70;99.90
55211;DHT22;41082;52.822;6.666;2023-04-24T10:01:51;9.70;99.90
55211;DHT22;41082;52.822;6.666;2023-04-24T10:04:24;9.70;99.90
55211;DHT22;41082;52.822;6.666;2023-04-24T10:06:52;9.70;99.90
55211;DHT22;41082;52.822;6.666;2023-04-24T10:09:19;9.70;99.90
55211;DHT22;41082;52.822;6.666;2023-04-24T10:11:51;9.60;99.90
55211;DHT22;41082;52.822;6.666;2023-04-24T10:14:20;9.60;99.90
55211;DHT22;41082;52.822;6.666;2023-04-24T10:16:47;9.60;99.90
55211;DHT22;41082;52.822;6.666;2023-04-24T10:19:13;9.70;99.90
55211;DHT22;41082;52.822;6.666;2023-04-24T10:21:41;9.70;99.90
55211;DHT22;41082;52.822;6.666;2023-04-24T10:24:12;9.70;99.90
55211;DHT22;41082;52.822;6.666;2023-04-24T10:26:38;9.80;99.90
55211;DHT22;41082;52.822;6.666;2023-04-24T10:29:05;9.90;99.90
55211;DHT22;41082;52.822;6.666;2023-04-24T10:31:36;9.90;99.90
55211;DHT22;41082;52.822;6.666;2023-04-24T10:34:04;9.90;99.90
55211;DHT22;41082;52.822;6.666;2023-04-24T10:36:31;9.90;99.90
55211;DHT22;41082;52.822;6.666;2023-04-24T10:38:59;9.90;99.90
55211;DHT22;41082;52.822;6.666;2023-04-24T10:41:26;9.90;99.90
55211;DHT22;41082;52.822;6.666;2023-04-24T10:44:11;9.80;99.90
55211;DHT22;41082;52.822;6.666;2023-04-24T10:46:38;9.80;99.90
55211;DHT22;41082;52.822;6.666;2023-04-24T10:49:08;9.80;99.90
55211;DHT22;41082;52.822;6.666;2023-04-24T10:52:03;9.80;99.90
55211;DHT22;41082;52.822;6.666;2023-04-24T10:54:42;9.80;99.90
55211;DHT22;41082;52.822;6.666;2023-04-24T10:59:43;9.80;99.90
55211;DHT22;41082;52.822;6.666;2023-04-24T11:02:09;9.90;99.90
55211;DHT22;41082;52.822;6.666;2023-04-24T11:04:35;9.90;99.90
55211;DHT22;41082;52.822;6.666;2023-04-24T11:07:02;9.80;99.90
55211;DHT22;41082;52.822;6.666;2023-04-24T11:09:31;9.90;99.90
55211;DHT22;41082;52.822;6.666;2023-04-24T11:12:10;9.90;99.90
55211;DHT22;41082;52.822;6.666;2023-04-24T11:17:34;10.00;99.90
55211;DHT22;41082;52.822;6.666;2023-04-24T11:20:11;10.10;99.90
55211;DHT22;41082;52.822;6.666;2023-04-24T11:22:41;10.10;99.90
55211;DHT22;41082;52.822;6.666;2023-04-24T11:25:07;10.10;99.90
55211;DHT22;41082;52.822;6.666;2023-04-24T11:27:44;10.10;99.90
55211;DHT22;41082;52.822;6.666;2023-04-24T11:30:11;10.10;99.90
55211;DHT22;41082;52.822;6.666;2023-04-24T11:32:41;10.00;99.90
55211;DHT22;41082;52.822;6.666;2023-04-24T11:35:23;10.00;99.90
55211;DHT22;41082;52.822;6.666;2023-04-24T11:37:54;10.00;99.90
55211;DHT22;41082;52.822;6.666;2023-04-24T11:40:21;10.00;99.90
55211;DHT22;41082;52.822;6.666;2023-04-24T11:42:52;10.00;99.90
55211;DHT22;41082;52.822;6.666;2023-04-24T11:45:23;10.00;99.90
55211;DHT22;41082;52.822;6.666;2023-04-24T11:47:50;10.10;99.90
55211;DHT22;41082;52.822;6.666;2023-04-24T11:50:17;10.20;99.90
55211;DHT22;41082;52.822;6.666;2023-04-24T11:52:45;10.20;99.90
55211;DHT22;41082;52.822;6.666;2023-04-24T11:57:42;10.30;99.90
55211;DHT22;41082;52.822;6.666;2023-04-24T12:00:15;10.30;99.90
55211;DHT22;41082;52.822;6.666;2023-04-24T12:02:41;10.40;99.90
55211;DHT22;41082;52.822;6.666;2023-04-24T12:05:07;10.40;99.90
55211;DHT22;41082;52.822;6.666;2023-04-24T12:07:41;10.40;99.90
55211;DHT22;41082;52.822;6.666;2023-04-24T12:10:08;10.30;99.90
55211;DHT22;41082;52.822;6.666;2023-04-24T12:12:34;10.30;99.90
55211;DHT22;41082;52.822;6.666;2023-04-24T12:15:02;10.20;99.90
55211;DHT22;41082;52.822;6.666;2023-04-24T12:17:33;10.20;99.90
55211;DHT22;41082;52.822;6.666;2023-04-24T12:20:03;10.10;99.90
55211;DHT22;41082;52.822;6.666;2023-04-24T12:23:06;10.00;99.90
55211;DHT22;41082;52.822;6.666;2023-04-24T12:25:32;9.90;99.90
55211;DHT22;41082;52.822;6.666;2023-04-24T12:30:30;9.80;99.90
55211;DHT22;41082;52.822;6.666;2023-04-24T12:33:00;9.80;99.90
55211;DHT22;41082;52.822;6.666;2023-04-24T12:35:30;9.80;99.90
55211;DHT22;41082;52.822;6.666;2023-04-24T12:38:06;9.80;99.90
55211;DHT22;41082;52.822;6.666;2023-04-24T12:40:32;9.90;99.90
55211;DHT22;41082;52.822;6.666;2023-04-24T12:42:58;9.90;99.90
55211;DHT22;41082;52.822;6.666;2023-04-24T12:45:23;10.00;99.90
55211;DHT22;41082;52.822;6.666;2023-04-24T12:47:50;9.90;99.90
55211;DHT22;41082;52.822;6.666;2023-04-24T12:50:16;9.90;99.90
55211;DHT22;41082;52.822;6.666;2023-04-24T12:52:43;9.90;99.90
55211;DHT22;41082;52.822;6.666;2023-04-24T12:55:09;10.00;99.90
55211;DHT22;41082;52.822;6.666;2023-04-24T12:57:36;10.00;99.90
55211;DHT22;41082;52.822;6.666;2023-04-24T13:00:03;10.10;99.90
55211;DHT22;41082;52.822;6.666;2023-04-24T13:02:30;10.20;99.90
55211;DHT22;41082;52.822;6.666;2023-04-24T13:04:57;10.30;99.90
55211;DHT22;41082;52.822;6.666;2023-04-24T13:07:24;10.30;99.90
55211;DHT22;41082;52.822;6.666;2023-04-24T13:09:50;10.30;99.90
55211;DHT22;41082;52.822;6.666;2023-04-24T13:12:16;10.30;99.90
55211;DHT22;41082;52.822;6.666;2023-04-24T13:14:42;10.30;99.90
55211;DHT22;41082;52.822;6.666;2023-04-24T13:17:08;10.20;99.90
55211;DHT22;41082;52.822;6.666;2023-04-24T13:19:41;10.10;99.90
55211;DHT22;41082;52.822;6.666;2023-04-24T13:22:08;9.90;99.90
55211;DHT22;41082;52.822;6.666;2023-04-24T13:24:34;9.90;99.90
55211;DHT22;41082;52.822;6.666;2023-04-24T13:27:00;9.80;99.90
55211;DHT22;41082;52.822;6.666;2023-04-24T13:29:26;9.70;99.90
55211;DHT22;41082;52.822;6.666;2023-04-24T13:31:53;9.70;99.90
55211;DHT22;41082;52.822;6.666;2023-04-24T13:34:22;9.80;99.90
55211;DHT22;41082;52.822;6.666;2023-04-24T13:36:52;9.80;99.90
55211;DHT22;41082;52.822;6.666;2023-04-24T13:39:18;9.80;99.90
55211;DHT22;41082;52.822;6.666;2023-04-24T13:41:44;9.80;99.90
55211;DHT22;41082;52.822;6.666;2023-04-24T13:44:10;9.80;99.90
55211;DHT22;41082;52.822;6.666;2023-04-24T13:46:36;9.80;99.90
55211;DHT22;41082;52.822;6.666;2023-04-24T13:49:02;9.80;99.90
55211;DHT22;41082;52.822;6.666;2023-04-24T13:51:29;9.70;99.90
55211;DHT22;41082;52.822;6.666;2023-04-24T13:53:55;9.70;99.90
55211;DHT22;41082;52.822;6.666;2023-04-24T13:56:21;9.60;99.90
55211;DHT22;41082;52.822;6.666;2023-04-24T13:58:48;9.60;99.90
55211;DHT22;41082;52.822;6.666;2023-04-24T14:01:14;9.60;99.90
55211;DHT22;41082;52.822;6.666;2023-04-24T14:03:41;9.60;99.90
55211;DHT22;41082;52.822;6.666;2023-04-24T14:06:08;9.50;99.90
55211;DHT22;41082;52.822;6.666;2023-04-24T14:08:34;9.40;99.90
55211;DHT22;41082;52.822;6.666;2023-04-24T14:10:59;9.40;99.90
55211;DHT22;41082;52.822;6.666;2023-04-24T14:13:25;9.30;99.90
55211;DHT22;41082;52.822;6.666;2023-04-24T14:15:51;9.20;99.90
55211;DHT22;41082;52.822;6.666;2023-04-24T14:18:18;9.10;99.90
55211;DHT22;41082;52.822;6.666;2023-04-24T14:20:44;9.00;99.90
55211;DHT22;41082;52.822;6.666;2023-04-24T14:23:09;9.10;99.90
55211;DHT22;41082;52.822;6.666;2023-04-24T14:25:35;9.10;99.90
55211;DHT22;41082;52.822;6.666;2023-04-24T14:28:00;9.10;99.90
55211;DHT22;41082;52.822;6.666;2023-04-24T14:30:26;9.20;99.90
55211;DHT22;41082;52.822;6.666;2023-04-24T14:32:52;9.20;99.90
55211;DHT22;41082;52.822;6.666;2023-04-24T14:35:17;9.20;99.90
55211;DHT22;41082;52.822;6.666;2023-04-24T14:37:43;9.30;99.90
55211;DHT22;41082;52.822;6.666;2023-04-24T14:40:09;9.30;99.90
55211;DHT22;41082;52.822;6.666;2023-04-24T14:42:35;9.40;99.90
55211;DHT22;41082;52.822;6.666;2023-04-24T14:45:01;9.40;99.90
55211;DHT22;41082;52.822;6.666;2023-04-24T14:47:27;9.40;99.90
55211;DHT22;41082;52.822;6.666;2023-04-24T14:49:53;9.40;99.90
55211;DHT22;41082;52.822;6.666;2023-04-24T14:52:18;9.40;99.90
55211;DHT22;41082;52.822;6.666;2023-04-24T14:54:44;9.40;99.90
55211;DHT22;41082;52.822;6.666;2023-04-24T14:57:10;9.40;99.90
55211;DHT22;41082;52.822;6.666;2023-04-24T14:59:36;9.40;99.90
55211;DHT22;41082;52.822;6.666;2023-04-24T15:02:01;9.40;99.90
55211;DHT22;41082;52.822;6.666;2023-04-24T15:04:28;9.40;99.90
55211;DHT22;41082;52.822;6.666;2023-04-24T15:06:55;9.30;99.90
55211;DHT22;41082;52.822;6.666;2023-04-24T15:09:22;9.40;99.90
55211;DHT22;41082;52.822;6.666;2023-04-24T15:11:48;9.40;99.90
55211;DHT22;41082;52.822;6.666;2023-04-24T15:14:15;9.60;99.90
55211;DHT22;41082;52.822;6.666;2023-04-24T15:16:40;9.60;99.90
55211;DHT22;41082;52.822;6.666;2023-04-24T15:19:06;9.70;99.90
55211;DHT22;41082;52.822;6.666;2023-04-24T15:21:32;9.80;99.90
55211;DHT22;41082;52.822;6.666;2023-04-24T15:23:58;9.80;99.90
55211;DHT22;41082;52.822;6.666;2023-04-24T15:26:24;9.80;99.90
55211;DHT22;41082;52.822;6.666;2023-04-24T15:28:51;9.90;99.90
55211;DHT22;41082;52.822;6.666;2023-04-24T15:31:17;9.90;99.90
55211;DHT22;41082;52.822;6.666;2023-04-24T15:33:43;10.00;99.90
55211;DHT22;41082;52.822;6.666;2023-04-24T15:36:09;10.20;99.90
55211;DHT22;41082;52.822;6.666;2023-04-24T15:38:35;10.30;99.90
55211;DHT22;41082;52.822;6.666;2023-04-24T15:41:01;10.30;99.90
55211;DHT22;41082;52.822;6.666;2023-04-24T15:43:26;10.20;99.90
55211;DHT22;41082;52.822;6.666;2023-04-24T15:45:55;10.10;99.90
55211;DHT22;41082;52.822;6.666;2023-04-24T15:48:21;10.10;99.90